sensor_id;sensor_type;location;lat;lon;timestamp;temperature;humidity
41262;DHT22;29629;52.532;13.352;2023-04-24T00:00:18;13.20;99.90
41262;DHT22;29629;52.532;13.352;2023-04-24T00:02:45;13.20;99.90
41262;DHT22;29629;52.532;13.352;2023-04-24T00:05:15;13.20;99.90
41262;DHT22;29629;52.532;13.352;2023-04-24T00:07:43;13.20;99.90
41262;DHT22;29629;52.532;13.352;2023-04-24T00:10:11;13.10;99.90
41262;DHT22;29629;52.532;13.352;2023-04-24T00:12:38;13.10;99.90
41262;DHT22;29629;52.532;13.352;2023-04-24T00:15:06;13.10;99.90
41262;DHT22;29629;52.532;13.352;2023-04-24T00:17:33;13.10;99.90
41262;DHT22;29629;52.532;13.352;2023-04-24T00:20:00;13.00;99.90
41262;DHT22;29629;52.532;13.352;2023-04-24T00:22:31;13.00;99.90
41262;DHT22;29629;52.532;13.352;2023-04-24T00:24:58;13.00;99.90
41262;DHT22;29629;52.532;13.352;2023-04-24T00:27:25;13.00;99.90
41262;DHT22;29629;52.532;13.352;2023-04-24T00:29:52;12.90;99.90
41262;DHT22;29629;52.532;13.352;2023-04-24T00:32:19;12.90;99.90
41262;DHT22;29629;52.532;13.352;2023-04-24T00:34:46;12.90;99.90
41262;DHT22;29629;52.532;13.352;2023-04-24T00:37:13;12.90;99.90
41262;DHT22;29629;52.532;13.352;2023-04-24T00:39:41;12.80;99.90
41262;DHT22;29629;52.532;13.352;2023-04-24T00:42:08;12.80;99.90
41262;DHT22;29629;52.532;13.352;2023-04-24T00:44:35;12.80;99.90
41262;DHT22;29629;52.532;13.352;2023-04-24T00:47:02;12.80;99.90
41262;DHT22;29629;52.532;13.352;2023-04-24T00:49:30;12.70;99.90
41262;DHT22;29629;52.532;13.352;2023-04-24T00:51:56;12.70;99.90
41262;DHT22;29629;52.532;13.352;2023-04-24T00:54:24;12.70;99.90
41262;DHT22;29629;52.532;13.352;2023-04-24T00:56:53;12.70;99.90
41262;DHT22;29629;52.532;13.352;2023-04-24T00:59:20;12.70;99.90
41262;DHT22;29629;52.532;13.352;2023-04-24T01:01:47;12.70;99.90
41262;DHT22;29629;52.532;13.352;2023-04-24T01:04:14;12.70;99.90
41262;DHT22;29629;52.532;13.352;2023-04-24T01:06:44;12.70;99.90
41262;DHT22;29629;52.532;13.352;2023-04-24T01:09:12;12.60;99.90
41262;DHT22;29629;52.532;13.352;2023-04-24T01:11:41;12.60;99.90
41262;DHT22;29629;52.532;13.352;2023-04-24T01:14:10;12.70;99.90
41262;DHT22;29629;52.532;13.352;2023-04-24T01:16:37;12.60;99.90
41262;DHT22;29629;52.532;13.352;2023-04-24T01:19:05;12.60;99.90
41262;DHT22;29629;52.532;13.352;2023-04-24T01:21:36;12.60;99.90
41262;DHT22;29629;52.532;13.352;2023-04-24T01:24:05;12.60;99.90
41262;DHT22;29629;52.532;13.352;2023-04-24T01:26:32;12.60;99.90
41262;DHT22;29629;52.532;13.352;2023-04-24T01:29:00;12.50;99.90
41262;DHT22;29629;52.532;13.352;2023-04-24T01:31:26;12.50;99.90
41262;DHT22;29629;52.532;13.352;2023-04-24T01:33:54;12.50;99.90
41262;DHT22;29629;52.532;13.352;2023-04-24T01:36:21;12.50;99.90
41262;DHT22;29629;52.532;13.352;2023-04-24T01:38:49;12.50;99.90
41262;DHT22;29629;52.532;13.352;2023-04-24T01:41:17;12.50;99.90
41262;DHT22;29629;52.532;13.352;2023-04-24T01:43:45;12.50;99.90
41262;DHT22;29629;52.532;13.352;2023-04-24T01:46:12;12.50;99.90
41262;DHT22;29629;52.532;13.352;2023-04-24T01:48:40;12.50;99.90
41262;DHT22;29629;52.532;13.352;2023-04-24T01:51:07;12.50;99.90
41262;DHT22;29629;52.532;13.352;2023-04-24T01:53:34;12.60;99.90
41262;DHT22;29629;52.532;13.352;2023-04-24T01:56:01;12.50;99.90
41262;DHT22;29629;52.532;13.352;2023-04-24T01:58:30;12.50;99.90
41262;DHT22;29629;52.532;13.352;2023-04-24T02:00:57;12.50;99.90
41262;DHT22;29629;52.532;13.352;2023-04-24T02:03:26;12.50;99.90
41262;DHT22;29629;52.532;13.352;2023-04-24T02:05:53;12.50;99.90
41262;DHT22;29629;52.532;13.352;2023-04-24T02:08:20;12.50;99.90
41262;DHT22;29629;52.532;13.352;2023-04-24T02:10:46;12.40;99.90
41262;DHT22;29629;52.532;13.352;2023-04-24T02:13:13;12.50;99.90
41262;DHT22;29629;52.532;13.352;2023-04-24T02:15:42;12.50;99.90
41262;DHT22;29629;52.532;13.352;2023-04-24T02:18:08;12.40;99.90
41262;DHT22;29629;52.532;13.352;2023-04-24T02:20:36;12.40;99.90
41262;DHT22;29629;52.532;13.352;2023-04-24T02:23:03;12.40;99.90
41262;DHT22;29629;52.532;13.352;2023-04-24T02:25:30;12.40;99.90
41262;DHT22;29629;52.532;13.352;2023-04-24T02:27:57;12.40;99.90
41262;DHT22;29629;52.532;13.352;2023-04-24T02:30:24;12.40;99.90
41262;DHT22;29629;52.532;13.352;2023-04-24T02:32:53;12.30;99.90
41262;DHT22;29629;52.532;13.352;2023-04-24T02:35:20;12.40;99.90
41262;DHT22;29629;52.532;13.352;2023-04-24T02:37:47;12.40;99.90
41262;DHT22;29629;52.532;13.352;2023-04-24T02:40:14;12.40;99.90
41262;DHT22;29629;52.532;13.352;2023-04-24T02:42:41;12.40;99.90
41262;DHT22;29629;52.532;13.352;2023-04-24T02:45:09;12.40;99.90
41262;DHT22;29629;52.532;13.352;2023-04-24T02:47:36;12.40;99.90
41262;DHT22;29629;52.532;13.352;2023-04-24T02:50:06;12.40;99.90
41262;DHT22;29629;52.532;13.352;2023-04-24T02:52:33;12.40;99.90
41262;DHT22;29629;52.532;13.352;2023-04-24T02:55:00;12.40;99.90
41262;DHT22;29629;52.532;13.352;2023-04-24T02:57:27;12.40;99.90
41262;DHT22;29629;52.532;13.352;2023-04-24T02:59:54;12.40;99.90
41262;DHT22;29629;52.532;13.352;2023-04-24T03:02:20;12.40;99.90
41262;DHT22;29629;52.532;13.352;2023-04-24T03:04:47;12.40;99.90
41262;DHT22;29629;52.532;13.352;2023-04-24T03:07:16;12.40;99.90
41262;DHT22;29629;52.532;13.352;2023-04-24T03:09:46;12.40;99.90
41262;DHT22;29629;52.532;13.352;2023-04-24T03:12:13;12.40;99.90
41262;DHT22;29629;52.532;13.352;2023-04-24T03:14:40;12.40;99.90
41262;DHT22;29629;52.532;13.352;2023-04-24T03:17:06;12.40;99.90
41262;DHT22;29629;52.532;13.352;2023-04-24T03:19:33;12.40;99.90
41262;DHT22;29629;52.532;13.352;2023-04-24T03:22:01;12.30;99.90
41262;DHT22;29629;52.532;13.352;2023-04-24T03:24:30;12.40;99.90
41262;DHT22;29629;52.532;13.352;2023-04-24T03:26:57;12.40;99.90
41262;DHT22;29629;52.532;13.352;2023-04-24T03:29:24;12.40;99.90
41262;DHT22;29629;52.532;13.352;2023-04-24T03:31:50;12.50;99.90
41262;DHT22;29629;52.532;13.352;2023-04-24T03:34:18;12.50;99.90
41262;DHT22;29629;52.532;13.352;2023-04-24T03:36:45;12.40;99.90
41262;DHT22;29629;52.532;13.352;2023-04-24T03:39:13;12.40;99.90
41262;DHT22;29629;52.532;13.352;2023-04-24T03:41:41;12.40;99.90
41262;DHT22;29629;52.532;13.352;2023-04-24T03:44:08;12.50;99.90
41262;DHT22;29629;52.532;13.352;2023-04-24T03:46:35;12.50;99.90
41262;DHT22;29629;52.532;13.352;2023-04-24T03:49:02;12.50;99.90
41262;DHT22;29629;52.532;13.352;2023-04-24T03:51:28;12.50;99.90
41262;DHT22;29629;52.532;13.352;2023-04-24T03:53:57;12.60;99.90
41262;DHT22;29629;52.532;13.352;2023-04-24T03:56:23;12.60;99.90
41262;DHT22;29629;52.532;13.352;2023-04-24T03:58:52;12.50;99.90
41262;DHT22;29629;52.532;13.352;2023-04-24T04:01:19;12.60;99.90
41262;DHT22;29629;52.532;13.352;2023-04-24T04:03:46;12.60;99.90
41262;DHT22;29629;52.532;13.352;2023-04-24T04:06:13;12.60;99.90
41262;DHT22;29629;52.532;13.352;2023-04-24T04:08:40;12.60;99.90
41262;DHT22;29629;52.532;13.352;2023-04-24T04:11:07;12.60;99.90
41262;DHT22;29629;52.532;13.352;2023-04-24T04:13:34;12.60;99.90
41262;DHT22;29629;52.532;13.352;2023-04-24T04:16:02;12.60;99.90
41262;DHT22;29629;52.532;13.352;2023-04-24T04:18:30;12.60;99.90
41262;DHT22;29629;52.532;13.352;2023-04-24T04:20:57;12.70;99.90
41262;DHT22;29629;52.532;13.352;2023-04-24T04:23:24;12.80;99.90
41262;DHT22;29629;52.532;13.352;2023-04-24T04:25:51;12.80;99.90
41262;DHT22;29629;52.532;13.352;2023-04-24T04:28:18;12.80;99.90
41262;DHT22;29629;52.532;13.352;2023-04-24T04:30:46;12.80;99.90
41262;DHT22;29629;52.532;13.352;2023-04-24T04:33:15;12.80;99.90
41262;DHT22;29629;52.532;13.352;2023-04-24T04:35:41;12.80;99.90
41262;DHT22;29629;52.532;13.352;2023-04-24T04:38:09;12.80;99.90
41262;DHT22;29629;52.532;13.352;2023-04-24T04:40:36;12.90;99.90
41262;DHT22;29629;52.532;13.352;2023-04-24T04:43:03;12.80;99.90
41262;DHT22;29629;52.532;13.352;2023-04-24T04:45:30;12.80;99.90
41262;DHT22;29629;52.532;13.352;2023-04-24T04:47:58;12.80;99.90
41262;DHT22;29629;52.532;13.352;2023-04-24T04:50:27;12.90;99.90
41262;DHT22;29629;52.532;13.352;2023-04-24T04:52:54;12.80;99.90
41262;DHT22;29629;52.532;13.352;2023-04-24T04:55:21;12.80;99.90
41262;DHT22;29629;52.532;13.352;2023-04-24T04:57:48;12.80;99.90
41262;DHT22;29629;52.532;13.352;2023-04-24T05:00:15;12.80;99.90
41262;DHT22;29629;52.532;13.352;2023-04-24T05:02:42;12.80;99.90
41262;DHT22;29629;52.532;13.352;2023-04-24T05:05:10;12.80;99.90
41262;DHT22;29629;52.532;13.352;2023-04-24T05:07:44;12.80;99.90
41262;DHT22;29629;52.532;13.352;2023-04-24T05:10:11;12.70;99.90
41262;DHT22;29629;52.532;13.352;2023-04-24T05:12:38;12.70;99.90
41262;DHT22;29629;52.532;13.352;2023-04-24T05:15:06;12.80;99.90
41262;DHT22;29629;52.532;13.352;2023-04-24T05:17:33;12.70;99.90
41262;DHT22;29629;52.532;13.352;2023-04-24T05:20:00;12.80;99.90
41262;DHT22;29629;52.532;13.352;2023-04-24T05:22:27;12.80;99.90
41262;DHT22;29629;52.532;13.352;2023-04-24T05:24:55;12.80;99.90
41262;DHT22;29629;52.532;13.352;2023-04-24T05:27:22;12.80;99.90
41262;DHT22;29629;52.532;13.352;2023-04-24T05:29:49;12.90;99.90
41262;DHT22;29629;52.532;13.352;2023-04-24T05:32:16;13.00;99.90
41262;DHT22;29629;52.532;13.352;2023-04-24T05:34:43;13.00;99.90
41262;DHT22;29629;52.532;13.352;2023-04-24T05:37:10;13.00;99.90
41262;DHT22;29629;52.532;13.352;2023-04-24T05:39:37;12.90;99.90
41262;DHT22;29629;52.532;13.352;2023-04-24T05:42:05;13.00;99.90
41262;DHT22;29629;52.532;13.352;2023-04-24T05:44:32;13.10;99.90
41262;DHT22;29629;52.532;13.352;2023-04-24T05:46:59;13.10;99.90
41262;DHT22;29629;52.532;13.352;2023-04-24T05:49:27;13.10;99.90
41262;DHT22;29629;52.532;13.352;2023-04-24T05:51:54;13.10;99.90
41262;DHT22;29629;52.532;13.352;2023-04-24T05:54:21;13.20;99.90
41262;DHT22;29629;52.532;13.352;2023-04-24T05:56:49;13.20;99.90
41262;DHT22;29629;52.532;13.352;2023-04-24T05:59:17;13.20;99.90
41262;DHT22;29629;52.532;13.352;2023-04-24T06:01:44;13.20;99.90
41262;DHT22;29629;52.532;13.352;2023-04-24T06:04:12;13.40;99.90
41262;DHT22;29629;52.532;13.352;2023-04-24T06:06:40;13.50;99.90
41262;DHT22;29629;52.532;13.352;2023-04-24T06:09:07;13.50;99.90
41262;DHT22;29629;52.532;13.352;2023-04-24T06:11:34;13.60;99.90
41262;DHT22;29629;52.532;13.352;2023-04-24T06:14:00;13.70;99.90
41262;DHT22;29629;52.532;13.352;2023-04-24T06:16:30;13.80;99.90
41262;DHT22;29629;52.532;13.352;2023-04-24T06:18:57;13.90;99.90
41262;DHT22;29629;52.532;13.352;2023-04-24T06:21:24;13.80;99.90
41262;DHT22;29629;52.532;13.352;2023-04-24T06:23:51;13.80;99.90
41262;DHT22;29629;52.532;13.352;2023-04-24T06:26:18;14.00;99.90
41262;DHT22;29629;52.532;13.352;2023-04-24T06:28:45;14.00;99.90
41262;DHT22;29629;52.532;13.352;2023-04-24T06:31:12;14.20;99.90
41262;DHT22;29629;52.532;13.352;2023-04-24T06:33:40;14.40;99.90
41262;DHT22;29629;52.532;13.352;2023-04-24T06:36:07;14.70;99.90
41262;DHT22;29629;52.532;13.352;2023-04-24T06:38:34;15.10;99.90
41262;DHT22;29629;52.532;13.352;2023-04-24T06:41:01;15.20;99.90
41262;DHT22;29629;52.532;13.352;2023-04-24T06:43:28;15.30;99.90
41262;DHT22;29629;52.532;13.352;2023-04-24T06:45:55;15.50;99.90
41262;DHT22;29629;52.532;13.352;2023-04-24T06:48:22;15.70;99.90
41262;DHT22;29629;52.532;13.352;2023-04-24T06:50:52;15.90;99.90
41262;DHT22;29629;52.532;13.352;2023-04-24T06:53:19;16.10;99.90
41262;DHT22;29629;52.532;13.352;2023-04-24T06:55:46;15.70;99.90
41262;DHT22;29629;52.532;13.352;2023-04-24T06:58:12;15.90;99.90
41262;DHT22;29629;52.532;13.352;2023-04-24T07:00:40;16.00;99.90
41262;DHT22;29629;52.532;13.352;2023-04-24T07:03:07;16.20;99.90
41262;DHT22;29629;52.532;13.352;2023-04-24T07:05:34;16.10;99.90
41262;DHT22;29629;52.532;13.352;2023-04-24T07:08:05;16.00;99.90
41262;DHT22;29629;52.532;13.352;2023-04-24T07:10:32;16.30;99.90
41262;DHT22;29629;52.532;13.352;2023-04-24T07:13:01;16.20;99.90
41262;DHT22;29629;52.532;13.352;2023-04-24T07:15:28;16.20;99.90
41262;DHT22;29629;52.532;13.352;2023-04-24T07:17:55;16.70;99.90
41262;DHT22;29629;52.532;13.352;2023-04-24T07:20:22;17.10;99.90
41262;DHT22;29629;52.532;13.352;2023-04-24T07:22:49;17.50;99.90
41262;DHT22;29629;52.532;13.352;2023-04-24T07:25:18;17.30;99.90
41262;DHT22;29629;52.532;13.352;2023-04-24T07:27:45;17.40;99.90
41262;DHT22;29629;52.532;13.352;2023-04-24T07:30:13;17.40;99.90
41262;DHT22;29629;52.532;13.352;2023-04-24T07:32:40;17.10;99.90
41262;DHT22;29629;52.532;13.352;2023-04-24T07:35:08;17.00;99.90
41262;DHT22;29629;52.532;13.352;2023-04-24T07:37:35;17.30;99.90
41262;DHT22;29629;52.532;13.352;2023-04-24T07:40:03;17.50;99.90
41262;DHT22;29629;52.532;13.352;2023-04-24T07:42:31;17.40;99.90
41262;DHT22;29629;52.532;13.352;2023-04-24T07:45:00;17.70;99.90
41262;DHT22;29629;52.532;13.352;2023-04-24T07:47:27;18.00;99.90
41262;DHT22;29629;52.532;13.352;2023-04-24T07:49:54;17.90;99.90
41262;DHT22;29629;52.532;13.352;2023-04-24T07:52:20;18.10;99.90
41262;DHT22;29629;52.532;13.352;2023-04-24T07:54:47;18.50;99.90
41262;DHT22;29629;52.532;13.352;2023-04-24T07:57:15;18.40;99.90
41262;DHT22;29629;52.532;13.352;2023-04-24T07:59:43;18.40;99.90
41262;DHT22;29629;52.532;13.352;2023-04-24T08:02:10;18.80;99.90
41262;DHT22;29629;52.532;13.352;2023-04-24T08:04:37;18.30;99.90
41262;DHT22;29629;52.532;13.352;2023-04-24T08:07:04;18.30;99.90
41262;DHT22;29629;52.532;13.352;2023-04-24T08:09:31;18.70;99.90
41262;DHT22;29629;52.532;13.352;2023-04-24T08:11:58;19.10;99.90
41262;DHT22;29629;52.532;13.352;2023-04-24T08:14:25;19.30;99.90
41262;DHT22;29629;52.532;13.352;2023-04-24T08:16:54;18.60;99.90
41262;DHT22;29629;52.532;13.352;2023-04-24T08:19:22;17.70;99.90
41262;DHT22;29629;52.532;13.352;2023-04-24T08:21:51;17.10;99.90
41262;DHT22;29629;52.532;13.352;2023-04-24T08:24:18;17.50;99.90
41262;DHT22;29629;52.532;13.352;2023-04-24T08:26:45;17.60;99.90
41262;DHT22;29629;52.532;13.352;2023-04-24T08:29:12;18.00;99.90
41262;DHT22;29629;52.532;13.352;2023-04-24T08:31:39;17.30;99.90
41262;DHT22;29629;52.532;13.352;2023-04-24T08:34:07;16.90;99.90
41262;DHT22;29629;52.532;13.352;2023-04-24T08:36:34;17.30;99.90
41262;DHT22;29629;52.532;13.352;2023-04-24T08:39:01;17.40;99.90
41262;DHT22;29629;52.532;13.352;2023-04-24T08:41:28;17.80;99.90
41262;DHT22;29629;52.532;13.352;2023-04-24T08:43:55;18.20;99.90
41262;DHT22;29629;52.532;13.352;2023-04-24T08:46:24;18.10;99.90
41262;DHT22;29629;52.532;13.352;2023-04-24T08:48:52;17.90;99.90
41262;DHT22;29629;52.532;13.352;2023-04-24T08:51:20;18.10;99.90
41262;DHT22;29629;52.532;13.352;2023-04-24T08:53:48;18.40;99.90
41262;DHT22;29629;52.532;13.352;2023-04-24T08:56:16;18.80;99.90
41262;DHT22;29629;52.532;13.352;2023-04-24T08:58:43;19.20;99.90
41262;DHT22;29629;52.532;13.352;2023-04-24T09:01:11;19.60;99.90
41262;DHT22;29629;52.532;13.352;2023-04-24T09:03:39;19.50;99.90
41262;DHT22;29629;52.532;13.352;2023-04-24T09:06:07;19.40;99.90
41262;DHT22;29629;52.532;13.352;2023-04-24T09:08:36;19.50;99.90
41262;DHT22;29629;52.532;13.352;2023-04-24T09:11:03;19.20;99.90
41262;DHT22;29629;52.532;13.352;2023-04-24T09:13:30;19.10;99.90
41262;DHT22;29629;52.532;13.352;2023-04-24T09:15:58;19.10;99.90
41262;DHT22;29629;52.532;13.352;2023-04-24T09:18:26;18.50;99.90
41262;DHT22;29629;52.532;13.352;2023-04-24T09:21:00;18.60;99.90
41262;DHT22;29629;52.532;13.352;2023-04-24T09:23:29;18.40;99.90
41262;DHT22;29629;52.532;13.352;2023-04-24T09:25:58;18.50;99.90
41262;DHT22;29629;52.532;13.352;2023-04-24T09:28:26;18.10;99.90
41262;DHT22;29629;52.532;13.352;2023-04-24T09:31:12;18.00;99.90
41262;DHT22;29629;52.532;13.352;2023-04-24T09:33:40;17.80;99.90
41262;DHT22;29629;52.532;13.352;2023-04-24T09:36:19;18.10;99.90
41262;DHT22;29629;52.532;13.352;2023-04-24T09:38:55;18.20;99.90
41262;DHT22;29629;52.532;13.352;2023-04-24T09:41:26;17.60;99.90
41262;DHT22;29629;52.532;13.352;2023-04-24T09:43:54;17.20;99.90
41262;DHT22;29629;52.532;13.352;2023-04-24T09:46:28;17.30;99.90
41262;DHT22;29629;52.532;13.352;2023-04-24T09:48:56;17.40;99.90
41262;DHT22;29629;52.532;13.352;2023-04-24T09:51:34;17.30;99.90
41262;DHT22;29629;52.532;13.352;2023-04-24T09:54:02;17.60;99.90
41262;DHT22;29629;52.532;13.352;2023-04-24T09:56:32;17.50;99.90
41262;DHT22;29629;52.532;13.352;2023-04-24T09:59:05;17.90;99.90
41262;DHT22;29629;52.532;13.352;2023-04-24T10:01:34;17.80;99.90
41262;DHT22;29629;52.532;13.352;2023-04-24T10:04:01;18.40;99.90
41262;DHT22;29629;52.532;13.352;2023-04-24T10:06:35;19.10;99.90
41262;DHT22;29629;52.532;13.352;2023-04-24T10:09:02;19.10;99.90
41262;DHT22;29629;52.532;13.352;2023-04-24T10:11:31;19.60;99.90
41262;DHT22;29629;52.532;13.352;2023-04-24T10:13:58;19.40;99.90
41262;DHT22;29629;52.532;13.352;2023-04-24T10:16:26;21.30;99.90
41262;DHT22;29629;52.532;13.352;2023-04-24T10:18:54;21.10;99.90
41262;DHT22;29629;52.532;13.352;2023-04-24T10:21:22;20.30;99.90
41262;DHT22;29629;52.532;13.352;2023-04-24T10:23:50;19.70;99.90
41262;DHT22;29629;52.532;13.352;2023-04-24T10:26:18;20.10;99.90
41262;DHT22;29629;52.532;13.352;2023-04-24T10:28:47;19.90;99.90
41262;DHT22;29629;52.532;13.352;2023-04-24T10:31:15;18.90;99.90
41262;DHT22;29629;52.532;13.352;2023-04-24T10:33:43;18.30;99.90
41262;DHT22;29629;52.532;13.352;2023-04-24T10:36:11;18.90;99.90
41262;DHT22;29629;52.532;13.352;2023-04-24T10:38:40;18.30;99.90
41262;DHT22;29629;52.532;13.352;2023-04-24T10:41:09;17.80;99.90
41262;DHT22;29629;52.532;13.352;2023-04-24T10:43:42;17.60;99.90
41262;DHT22;29629;52.532;13.352;2023-04-24T10:46:10;17.60;99.90
41262;DHT22;29629;52.532;13.352;2023-04-24T10:48:44;17.10;99.90
41262;DHT22;29629;52.532;13.352;2023-04-24T10:51:18;17.10;99.90
41262;DHT22;29629;52.532;13.352;2023-04-24T10:53:49;16.70;99.90
41262;DHT22;29629;52.532;13.352;2023-04-24T10:56:17;16.70;99.90
41262;DHT22;29629;52.532;13.352;2023-04-24T10:58:45;17.00;99.90
41262;DHT22;29629;52.532;13.352;2023-04-24T11:01:26;17.00;99.90
41262;DHT22;29629;52.532;13.352;2023-04-24T11:03:55;17.40;99.90
41262;DHT22;29629;52.532;13.352;2023-04-24T11:06:29;18.60;99.90
41262;DHT22;29629;52.532;13.352;2023-04-24T11:09:02;19.50;99.90
41262;DHT22;29629;52.532;13.352;2023-04-24T11:11:30;19.90;99.90
41262;DHT22;29629;52.532;13.352;2023-04-24T11:14:07;19.50;99.90
41262;DHT22;29629;52.532;13.352;2023-04-24T11:16:42;19.10;99.90
41262;DHT22;29629;52.532;13.352;2023-04-24T11:19:18;20.30;99.90
41262;DHT22;29629;52.532;13.352;2023-04-24T11:21:46;20.90;99.90
41262;DHT22;29629;52.532;13.352;2023-04-24T11:24:27;20.30;99.90
41262;DHT22;29629;52.532;13.352;2023-04-24T11:26:55;20.60;99.90
41262;DHT22;29629;52.532;13.352;2023-04-24T11:29:22;19.80;99.90
41262;DHT22;29629;52.532;13.352;2023-04-24T11:31:51;18.40;99.90
41262;DHT22;29629;52.532;13.352;2023-04-24T11:34:18;17.80;99.90
41262;DHT22;29629;52.532;13.352;2023-04-24T11:36:46;17.30;99.90
41262;DHT22;29629;52.532;13.352;2023-04-24T11:39:13;17.20;99.90
41262;DHT22;29629;52.532;13.352;2023-04-24T11:41:40;16.60;99.90
41262;DHT22;29629;52.532;13.352;2023-04-24T11:44:09;16.20;99.90
41262;DHT22;29629;52.532;13.352;2023-04-24T11:46:37;16.50;99.90
41262;DHT22;29629;52.532;13.352;2023-04-24T11:49:06;16.50;99.90
41262;DHT22;29629;52.532;13.352;2023-04-24T11:51:34;16.20;99.90
41262;DHT22;29629;52.532;13.352;2023-04-24T11:54:01;15.90;99.90
41262;DHT22;29629;52.532;13.352;2023-04-24T11:56:28;16.40;99.90
41262;DHT22;29629;52.532;13.352;2023-04-24T11:58:55;17.30;99.90
41262;DHT22;29629;52.532;13.352;2023-04-24T12:01:22;19.30;99.90
41262;DHT22;29629;52.532;13.352;2023-04-24T12:03:49;20.30;99.90
41262;DHT22;29629;52.532;13.352;2023-04-24T12:06:18;19.50;99.90
41262;DHT22;29629;52.532;13.352;2023-04-24T12:08:46;19.50;99.90
41262;DHT22;29629;52.532;13.352;2023-04-24T12:11:16;19.60;99.90
41262;DHT22;29629;52.532;13.352;2023-04-24T12:13:44;20.90;99.90
41262;DHT22;29629;52.532;13.352;2023-04-24T12:16:12;21.40;99.90
41262;DHT22;29629;52.532;13.352;2023-04-24T12:18:43;22.30;99.90
41262;DHT22;29629;52.532;13.352;2023-04-24T12:21:19;22.00;99.90
41262;DHT22;29629;52.532;13.352;2023-04-24T12:23:46;22.20;99.90
41262;DHT22;29629;52.532;13.352;2023-04-24T12:26:16;23.20;99.90
41262;DHT22;29629;52.532;13.352;2023-04-24T12:28:46;22.70;99.90
41262;DHT22;29629;52.532;13.352;2023-04-24T12:31:13;23.70;99.90
41262;DHT22;29629;52.532;13.352;2023-04-24T12:33:40;23.70;99.90
41262;DHT22;29629;52.532;13.352;2023-04-24T12:36:10;22.20;99.90
41262;DHT22;29629;52.532;13.352;2023-04-24T12:38:43;23.00;99.90
41262;DHT22;29629;52.532;13.352;2023-04-24T12:41:13;21.60;99.90
41262;DHT22;29629;52.532;13.352;2023-04-24T12:43:51;21.70;99.90
41262;DHT22;29629;52.532;13.352;2023-04-24T12:46:18;21.60;99.90
41262;DHT22;29629;52.532;13.352;2023-04-24T12:48:46;20.90;99.90
41262;DHT22;29629;52.532;13.352;2023-04-24T12:51:13;19.60;99.90
41262;DHT22;29629;52.532;13.352;2023-04-24T12:53:41;19.40;99.90
41262;DHT22;29629;52.532;13.352;2023-04-24T12:56:08;19.60;99.90
41262;DHT22;29629;52.532;13.352;2023-04-24T12:58:35;19.70;99.90
41262;DHT22;29629;52.532;13.352;2023-04-24T13:01:01;19.50;99.90
41262;DHT22;29629;52.532;13.352;2023-04-24T13:03:28;19.70;99.90
41262;DHT22;29629;52.532;13.352;2023-04-24T13:05:55;20.30;99.90
41262;DHT22;29629;52.532;13.352;2023-04-24T13:08:22;20.20;99.90
41262;DHT22;29629;52.532;13.352;2023-04-24T13:10:50;19.90;99.90
41262;DHT22;29629;52.532;13.352;2023-04-24T13:13:19;19.70;99.90
41262;DHT22;29629;52.532;13.352;2023-04-24T13:15:46;20.00;99.90
41262;DHT22;29629;52.532;13.352;2023-04-24T13:18:13;21.50;99.90
41262;DHT22;29629;52.532;13.352;2023-04-24T13:20:40;22.00;99.90
41262;DHT22;29629;52.532;13.352;2023-04-24T13:23:07;20.30;99.90
41262;DHT22;29629;52.532;13.352;2023-04-24T13:25:35;19.80;99.90
41262;DHT22;29629;52.532;13.352;2023-04-24T13:28:04;19.80;99.90
41262;DHT22;29629;52.532;13.352;2023-04-24T13:30:31;19.50;99.90
41262;DHT22;29629;52.532;13.352;2023-04-24T13:32:58;19.10;99.90
41262;DHT22;29629;52.532;13.352;2023-04-24T13:35:25;19.30;99.90
41262;DHT22;29629;52.532;13.352;2023-04-24T13:37:52;20.10;99.90
41262;DHT22;29629;52.532;13.352;2023-04-24T13:40:19;19.90;99.90
41262;DHT22;29629;52.532;13.352;2023-04-24T13:42:46;19.20;99.90
41262;DHT22;29629;52.532;13.352;2023-04-24T13:45:14;19.00;99.90
41262;DHT22;29629;52.532;13.352;2023-04-24T13:47:41;19.20;99.90
41262;DHT22;29629;52.532;13.352;2023-04-24T13:50:08;20.20;99.90
41262;DHT22;29629;52.532;13.352;2023-04-24T13:52:35;20.00;99.90
41262;DHT22;29629;52.532;13.352;2023-04-24T13:55:03;19.50;99.90
41262;DHT22;29629;52.532;13.352;2023-04-24T13:57:30;19.20;99.90
41262;DHT22;29629;52.532;13.352;2023-04-24T13:59:58;19.50;99.90
41262;DHT22;29629;52.532;13.352;2023-04-24T14:02:28;18.90;99.90
41262;DHT22;29629;52.532;13.352;2023-04-24T14:04:55;18.70;99.90
41262;DHT22;29629;52.532;13.352;2023-04-24T14:07:22;18.60;99.90
41262;DHT22;29629;52.532;13.352;2023-04-24T14:09:49;18.80;99.90
41262;DHT22;29629;52.532;13.352;2023-04-24T14:12:16;19.00;99.90
41262;DHT22;29629;52.532;13.352;2023-04-24T14:14:46;18.80;99.90
41262;DHT22;29629;52.532;13.352;2023-04-24T14:17:13;17.90;99.90
41262;DHT22;29629;52.532;13.352;2023-04-24T14:19:42;17.60;99.90
41262;DHT22;29629;52.532;13.352;2023-04-24T14:22:09;17.60;99.90
41262;DHT22;29629;52.532;13.352;2023-04-24T14:24:36;17.80;99.90
41262;DHT22;29629;52.532;13.352;2023-04-24T14:27:03;17.90;99.90
41262;DHT22;29629;52.532;13.352;2023-04-24T14:29:30;18.20;99.90
41262;DHT22;29629;52.532;13.352;2023-04-24T14:31:57;18.40;99.90
41262;DHT22;29629;52.532;13.352;2023-04-24T14:34:24;18.60;99.90
41262;DHT22;29629;52.532;13.352;2023-04-24T14:39:28;18.80;99.90
41262;DHT22;29629;52.532;13.352;2023-04-24T14:41:55;18.80;99.90
41262;DHT22;29629;52.532;13.352;2023-04-24T14:44:22;18.40;99.90
41262;DHT22;29629;52.532;13.352;2023-04-24T14:46:49;18.70;99.90
41262;DHT22;29629;52.532;13.352;2023-04-24T14:49:16;18.70;99.90
41262;DHT22;29629;52.532;13.352;2023-04-24T14:51:43;18.90;99.90
41262;DHT22;29629;52.532;13.352;2023-04-24T14:54:10;18.60;99.90
41262;DHT22;29629;52.532;13.352;2023-04-24T14:56:38;18.60;99.90
41262;DHT22;29629;52.532;13.352;2023-04-24T14:59:06;18.60;99.90
41262;DHT22;29629;52.532;13.352;2023-04-24T15:01:33;18.40;99.90
41262;DHT22;29629;52.532;13.352;2023-04-24T15:04:00;18.10;99.90
41262;DHT22;29629;52.532;13.352;2023-04-24T15:06:27;18.30;99.90
41262;DHT22;29629;52.532;13.352;2023-04-24T15:08:56;18.50;99.90
41262;DHT22;29629;52.532;13.352;2023-04-24T15:11:23;18.20;99.90
41262;DHT22;29629;52.532;13.352;2023-04-24T15:13:51;18.20;99.90
41262;DHT22;29629;52.532;13.352;2023-04-24T15:16:18;17.70;99.90
41262;DHT22;29629;52.532;13.352;2023-04-24T15:18:45;17.70;99.90
41262;DHT22;29629;52.532;13.352;2023-04-24T15:21:12;17.80;99.90